Marienville, Pennsylvania
Current Conditions -  °F | °C
As of 4:53 PM on Friday 24 Oct 2014 (Local Time) from KDUJ Reporting Station
Clear Clear  
Wind Chill: 56°   Ceiling: Unl
Heat Index: 56°   Visibility: 10mi
Dew Point: 37°   Wind: 10mph
Humidity: 49%   Direction: 290°WNW
Pressure: 29.96"   Gusts: NA
Location:  41.47°N, 79.12°W
Report Text: KDUJ 242053Z AUTO 29009KT 10SM CLR 13/03 A2996 RMK AO2 SLP147 T01330028 56009
Loading
Personal Weather Stations






























Interactive Weather Map
Tropical Storm Tracking
New forecast layout! Learn more

10-Day Weather Forecast

Advertisements
Track Severe Weather on mobile